createdAt,value
2019-05-31T00:00:37.703Z,1013.2
2019-05-31T00:01:39.074Z,1013.2
2019-05-31T00:02:40.435Z,1013.2
2019-05-31T00:03:41.788Z,1013.2
2019-05-31T00:04:43.141Z,1013.2
2019-05-31T00:05:44.499Z,1013.2
2019-05-31T00:06:45.845Z,1013.2
2019-05-31T00:07:47.215Z,1013.2
2019-05-31T00:08:48.569Z,1013.2
2019-05-31T00:09:49.923Z,1013.2
2019-05-31T00:10:51.690Z,1013.2
2019-05-31T00:11:53.927Z,1013.1
2019-05-31T00:12:54.001Z,1013.1
2019-05-31T00:13:57.244Z,1013.2
2019-05-31T00:14:56.559Z,1013.1
2019-05-31T00:15:58.844Z,1013.1
2019-05-31T00:16:59.239Z,1013.1
2019-05-31T00:18:00.793Z,1013.1
2019-05-31T00:19:03.109Z,1013.1
2019-05-31T00:20:03.233Z,1013.1
2019-05-31T00:21:04.585Z,1013.1
2019-05-31T00:22:07.239Z,1013.1
2019-05-31T00:23:07.261Z,1013.1
2019-05-31T00:24:08.616Z,1013.1
2019-05-31T00:25:09.972Z,1013.1
2019-05-31T00:26:11.343Z,1013.1
2019-05-31T00:27:12.684Z,1013.1
2019-05-31T00:28:14.042Z,1013.1
2019-05-31T00:29:15.438Z,1013.1
2019-05-31T00:30:16.833Z,1013.1
2019-05-31T00:31:18.199Z,1013.1
2019-05-31T00:32:19.555Z,1013.1
2019-05-31T00:33:20.914Z,1013.1
2019-05-31T00:34:22.262Z,1013.1
2019-05-31T00:35:23.618Z,1013.1
2019-05-31T00:36:24.978Z,1013.1
2019-05-31T00:37:26.324Z,1013.1
2019-05-31T00:38:27.696Z,1013.1
2019-05-31T00:39:29.050Z,1013.1
2019-05-31T00:40:30.401Z,1013.1
2019-05-31T00:41:31.763Z,1013.1
2019-05-31T00:42:33.104Z,1013.1
2019-05-31T00:43:34.466Z,1013.1
2019-05-31T00:44:35.825Z,1013.1
2019-05-31T00:45:37.181Z,1013.1
2019-05-31T00:46:38.533Z,1013.1
2019-05-31T00:47:39.894Z,1013.1
2019-05-31T00:48:41.255Z,1013.1
2019-05-31T00:49:42.614Z,1013.0
2019-05-31T00:50:43.959Z,1013.0
2019-05-31T00:51:45.328Z,1013.0
2019-05-31T00:52:46.684Z,1013.0
2019-05-31T00:53:48.038Z,1013.0
2019-05-31T00:54:49.394Z,1013.0
2019-05-31T00:55:50.762Z,1013.0
2019-05-31T00:56:52.149Z,1013.0
2019-05-31T00:57:53.505Z,1012.9
2019-05-31T00:58:54.859Z,1013.0
2019-05-31T00:59:56.562Z,1012.9
2019-05-31T01:00:58.725Z,1012.9
2019-05-31T01:01:59.221Z,1012.9
2019-05-31T01:03:00.870Z,1012.9
2019-05-31T01:04:01.515Z,1012.9
2019-05-31T01:05:03.383Z,1012.9
2019-05-31T01:06:05.472Z,1012.8
2019-05-31T01:07:05.542Z,1012.9
2019-05-31T01:08:07.545Z,1012.8
2019-05-31T01:09:08.215Z,1012.8
2019-05-31T01:10:09.568Z,1012.8
2019-05-31T01:11:10.920Z,1012.8
2019-05-31T01:12:12.280Z,1012.8
2019-05-31T01:13:13.641Z,1012.8
2019-05-31T01:14:15.001Z,1012.8
2019-05-31T01:15:16.362Z,1012.8
2019-05-31T01:16:17.729Z,1012.8
2019-05-31T01:17:19.079Z,1012.8
2019-05-31T01:18:20.445Z,1012.8
2019-05-31T01:19:21.791Z,1012.8
2019-05-31T01:20:23.152Z,1012.8
2019-05-31T01:21:24.513Z,1012.9
2019-05-31T01:22:25.866Z,1012.8
2019-05-31T01:23:27.240Z,1012.8
2019-05-31T01:24:28.640Z,1012.8
2019-05-31T01:25:29.995Z,1012.9
2019-05-31T01:26:31.351Z,1012.9
2019-05-31T01:27:32.719Z,1012.9
2019-05-31T01:28:34.083Z,1012.9
2019-05-31T01:29:35.434Z,1012.9
2019-05-31T01:30:36.789Z,1012.9
2019-05-31T01:31:38.146Z,1012.8
2019-05-31T01:32:39.510Z,1012.9
2019-05-31T01:33:40.861Z,1012.9
2019-05-31T01:34:42.220Z,1012.8
2019-05-31T01:35:43.580Z,1012.9
2019-05-31T01:36:44.996Z,1012.8
2019-05-31T01:37:46.297Z,1012.9
2019-05-31T01:38:47.649Z,1012.9
2019-05-31T01:39:49.071Z,1012.9
2019-05-31T01:40:50.429Z,1012.9
2019-05-31T01:41:51.782Z,1012.9
2019-05-31T01:42:53.138Z,1012.9
2019-05-31T01:43:54.499Z,1012.9
2019-05-31T01:45:07.487Z,1012.9
2019-05-31T01:45:57.187Z,1012.9
2019-05-31T01:46:58.536Z,1012.8
2019-05-31T01:48:01.385Z,1012.9
2019-05-31T01:49:01.640Z,1012.8
2019-05-31T01:50:03.530Z,1012.8
2019-05-31T01:51:03.871Z,1012.8
2019-05-31T01:52:05.917Z,1012.8
2019-05-31T01:53:06.542Z,1012.8
2019-05-31T01:54:08.249Z,1012.8
2019-05-31T01:55:10.260Z,1012.8
2019-05-31T01:56:10.551Z,1012.8
2019-05-31T01:57:12.540Z,1012.8
2019-05-31T01:58:13.233Z,1012.8
2019-05-31T01:59:14.585Z,1012.8
2019-05-31T02:00:15.945Z,1012.8
2019-05-31T02:01:17.297Z,1012.8
2019-05-31T02:02:18.670Z,1012.8
2019-05-31T02:03:20.022Z,1012.8
2019-05-31T02:04:21.374Z,1012.7
2019-05-31T02:05:22.745Z,1012.7
2019-05-31T02:06:24.101Z,1012.7
2019-05-31T02:07:25.551Z,1012.7
2019-05-31T02:08:26.915Z,1012.8
2019-05-31T02:09:28.279Z,1012.8
2019-05-31T02:10:29.635Z,1012.8
2019-05-31T02:11:30.990Z,1012.8
2019-05-31T02:12:32.355Z,1012.7
2019-05-31T02:13:33.700Z,1012.8
2019-05-31T02:14:35.060Z,1012.7
2019-05-31T02:15:36.419Z,1012.8
2019-05-31T02:16:37.772Z,1012.7
2019-05-31T02:17:39.127Z,1012.7
2019-05-31T02:18:40.490Z,1012.8
2019-05-31T02:19:41.842Z,1012.8
2019-05-31T02:20:43.199Z,1012.8
2019-05-31T02:21:44.549Z,1012.8
2019-05-31T02:22:45.903Z,1012.8
2019-05-31T02:23:47.263Z,1012.8
2019-05-31T02:24:48.616Z,1012.8
2019-05-31T02:25:49.975Z,1012.8
2019-05-31T02:26:51.346Z,1012.8
2019-05-31T02:27:52.695Z,1012.8
2019-05-31T02:28:54.056Z,1012.8
2019-05-31T02:29:55.406Z,1012.8
2019-05-31T02:30:56.763Z,1012.8
2019-05-31T02:31:58.113Z,1012.8
2019-05-31T02:32:59.477Z,1012.8
2019-05-31T02:34:00.833Z,1012.8
2019-05-31T02:35:02.236Z,1012.8
2019-05-31T02:36:03.596Z,1012.8
2019-05-31T02:37:06.585Z,1012.8
2019-05-31T02:38:07.194Z,1012.8
2019-05-31T02:39:09.363Z,1012.8
2019-05-31T02:40:10.303Z,1012.9
2019-05-31T02:41:11.694Z,1012.9
2019-05-31T02:42:12.961Z,1012.8
2019-05-31T02:43:13.993Z,1012.9
2019-05-31T02:44:15.831Z,1012.8
2019-05-31T02:45:18.067Z,1012.8
2019-05-31T02:46:17.266Z,1012.9
2019-05-31T02:47:18.371Z,1012.8
2019-05-31T02:48:19.507Z,1012.8
2019-05-31T02:49:20.826Z,1012.8
2019-05-31T02:50:22.186Z,1012.8
2019-05-31T02:51:23.543Z,1012.8
2019-05-31T02:52:24.906Z,1012.8
2019-05-31T02:53:26.261Z,1012.8
2019-05-31T02:54:27.612Z,1012.8
2019-05-31T02:55:28.975Z,1012.7
2019-05-31T02:56:30.337Z,1012.8
2019-05-31T02:57:31.704Z,1012.8
2019-05-31T02:58:33.057Z,1012.8
2019-05-31T02:59:34.418Z,1012.8
2019-05-31T03:00:35.777Z,1012.8
2019-05-31T03:01:37.133Z,1012.8
2019-05-31T03:02:38.561Z,1012.9
2019-05-31T03:03:39.923Z,1012.9
2019-05-31T03:04:41.283Z,1012.9
2019-05-31T03:05:42.641Z,1012.9
2019-05-31T03:06:44.007Z,1012.9
2019-05-31T03:07:45.358Z,1012.9
2019-05-31T03:08:46.714Z,1012.9
2019-05-31T03:09:48.117Z,1012.9
2019-05-31T03:10:49.481Z,1012.9
2019-05-31T03:11:50.843Z,1012.9
2019-05-31T03:12:52.194Z,1012.9
2019-05-31T03:13:53.552Z,1013.0
2019-05-31T03:14:54.907Z,1012.9
2019-05-31T03:16:06.980Z,1012.9
2019-05-31T03:16:57.582Z,1013.0
2019-05-31T03:17:58.939Z,1013.0
2019-05-31T03:19:00.287Z,1013.0
2019-05-31T03:20:01.669Z,1012.9
2019-05-31T03:21:03.017Z,1013.0
2019-05-31T03:22:04.367Z,1013.0
2019-05-31T03:23:05.743Z,1013.0
2019-05-31T03:24:07.104Z,1013.0
2019-05-31T03:25:08.459Z,1013.0
2019-05-31T03:26:09.831Z,1013.0
2019-05-31T03:27:12.605Z,1013.0
2019-05-31T03:28:12.676Z,1013.0
2019-05-31T03:29:14.924Z,1013.1
2019-05-31T03:30:19.232Z,1013.1
2019-05-31T03:31:25.485Z,1013.1
2019-05-31T03:32:25.579Z,1013.0
2019-05-31T03:33:22.479Z,1013.1
2019-05-31T03:34:26.950Z,1013.1
2019-05-31T03:35:31.294Z,1013.1
2019-05-31T03:36:30.592Z,1013.1
2019-05-31T03:37:24.449Z,1013.1
2019-05-31T03:38:27.127Z,1013.1
2019-05-31T03:39:27.196Z,1013.1
2019-05-31T03:40:28.493Z,1013.1
2019-05-31T03:41:29.844Z,1013.1
2019-05-31T03:42:31.213Z,1013.1
2019-05-31T03:43:32.565Z,1013.2
2019-05-31T03:44:33.932Z,1013.2
2019-05-31T03:45:35.288Z,1013.2
2019-05-31T03:46:41.953Z,1013.2
2019-05-31T03:47:37.981Z,1013.2
2019-05-31T03:48:39.339Z,1013.2
2019-05-31T03:49:40.712Z,1013.2
2019-05-31T03:50:42.079Z,1013.2
2019-05-31T03:51:43.446Z,1013.2
2019-05-31T03:52:44.795Z,1013.2
2019-05-31T03:53:46.169Z,1013.2
2019-05-31T03:54:47.518Z,1013.2
2019-05-31T03:55:48.874Z,1013.2
2019-05-31T03:56:50.243Z,1013.3
2019-05-31T03:57:51.694Z,1013.3
2019-05-31T03:58:53.051Z,1013.2
2019-05-31T03:59:54.420Z,1013.2
2019-05-31T04:00:55.779Z,1013.2
2019-05-31T04:01:57.138Z,1013.2
2019-05-31T04:02:58.498Z,1013.2
2019-05-31T04:03:59.867Z,1013.2
2019-05-31T04:05:01.277Z,1013.2
2019-05-31T04:06:02.544Z,1013.2
2019-05-31T04:07:03.913Z,1013.2
2019-05-31T04:08:05.285Z,1013.2
2019-05-31T04:09:06.628Z,1013.2
2019-05-31T04:10:07.989Z,1013.2
2019-05-31T04:11:09.354Z,1013.2
2019-05-31T04:12:10.719Z,1013.2
2019-05-31T04:13:12.083Z,1013.2
2019-05-31T04:14:13.440Z,1013.2
2019-05-31T04:15:15.423Z,1013.2
2019-05-31T04:16:16.267Z,1013.2
2019-05-31T04:17:17.454Z,1013.2
2019-05-31T04:18:22.009Z,1013.2
2019-05-31T04:19:21.459Z,1013.3
2019-05-31T04:20:23.016Z,1013.3
2019-05-31T04:21:23.482Z,1013.3
2019-05-31T04:22:25.176Z,1013.3
2019-05-31T04:23:27.103Z,1013.3
2019-05-31T04:24:26.792Z,1013.3
2019-05-31T04:25:28.253Z,1013.3
2019-05-31T04:26:29.619Z,1013.3
2019-05-31T04:27:30.976Z,1013.3
2019-05-31T04:28:32.354Z,1013.3
2019-05-31T04:29:33.724Z,1013.3
2019-05-31T04:30:35.075Z,1013.3
2019-05-31T04:31:36.448Z,1013.4
2019-05-31T04:32:37.806Z,1013.4
2019-05-31T04:33:39.163Z,1013.3
2019-05-31T04:34:40.522Z,1013.4
2019-05-31T04:35:41.891Z,1013.4
2019-05-31T04:36:43.244Z,1013.4
2019-05-31T04:37:44.616Z,1013.4
2019-05-31T04:38:45.976Z,1013.4
2019-05-31T04:39:47.361Z,1013.4
2019-05-31T04:40:48.728Z,1013.4
2019-05-31T04:41:50.119Z,1013.4
2019-05-31T04:42:51.448Z,1013.4
2019-05-31T04:43:52.818Z,1013.4
2019-05-31T04:44:54.178Z,1013.4
2019-05-31T04:45:55.543Z,1013.4
2019-05-31T04:47:09.734Z,1013.4
2019-05-31T04:47:58.248Z,1013.4
2019-05-31T04:48:59.607Z,1013.4
2019-05-31T04:50:00.986Z,1013.5
2019-05-31T04:51:02.333Z,1013.5
2019-05-31T04:52:03.709Z,1013.5
2019-05-31T04:53:05.173Z,1013.5
2019-05-31T04:54:09.853Z,1013.5
2019-05-31T04:55:07.877Z,1013.5
2019-05-31T04:56:09.246Z,1013.5
2019-05-31T04:57:10.603Z,1013.5
2019-05-31T04:58:11.969Z,1013.5
2019-05-31T04:59:13.337Z,1013.5
2019-05-31T05:00:16.699Z,1013.5
2019-05-31T05:01:16.711Z,1013.5
2019-05-31T05:02:18.393Z,1013.5
2019-05-31T05:03:20.470Z,1013.5
2019-05-31T05:04:20.612Z,1013.5
2019-05-31T05:05:22.667Z,1013.5
2019-05-31T05:06:22.681Z,1013.5
2019-05-31T05:07:24.796Z,1013.5
2019-05-31T05:08:26.856Z,1013.5
2019-05-31T05:09:31.694Z,1013.5
2019-05-31T05:10:28.009Z,1013.5
2019-05-31T05:11:29.373Z,1013.5
2019-05-31T05:12:30.737Z,1013.5
2019-05-31T05:13:32.099Z,1013.5
2019-05-31T05:14:33.455Z,1013.5
2019-05-31T05:15:34.815Z,1013.5
2019-05-31T05:16:36.195Z,1013.5
2019-05-31T05:17:41.075Z,1013.5
2019-05-31T05:18:38.875Z,1013.5
2019-05-31T05:19:40.249Z,1013.5
2019-05-31T05:20:41.693Z,1013.5
2019-05-31T05:21:43.064Z,1013.5
2019-05-31T05:22:44.415Z,1013.5
2019-05-31T05:23:45.789Z,1013.5
2019-05-31T05:24:47.176Z,1013.6
2019-05-31T05:25:49.900Z,1013.6
2019-05-31T05:26:49.864Z,1013.6
2019-05-31T05:27:51.261Z,1013.5
2019-05-31T05:28:52.630Z,1013.6
2019-05-31T05:29:53.993Z,1013.6
2019-05-31T05:30:55.350Z,1013.6
2019-05-31T05:31:56.720Z,1013.6
2019-05-31T05:32:58.103Z,1013.6
2019-05-31T05:33:59.460Z,1013.6
2019-05-31T05:35:00.820Z,1013.6
2019-05-31T05:36:02.199Z,1013.6
2019-05-31T05:37:03.575Z,1013.6
2019-05-31T05:38:04.933Z,1013.6
2019-05-31T05:39:06.304Z,1013.6
2019-05-31T05:40:07.665Z,1013.6
2019-05-31T05:41:09.040Z,1013.7
2019-05-31T05:42:10.406Z,1013.7
2019-05-31T05:43:11.768Z,1013.7
2019-05-31T05:44:13.145Z,1013.7
2019-05-31T05:45:14.511Z,1013.7
2019-05-31T05:46:15.868Z,1013.7
2019-05-31T05:47:17.230Z,1013.7
2019-05-31T05:48:19.332Z,1013.7
2019-05-31T05:49:19.991Z,1013.7
2019-05-31T05:50:21.593Z,1013.7
2019-05-31T05:51:23.822Z,1013.7
2019-05-31T05:52:24.087Z,1013.8
2019-05-31T05:53:26.204Z,1013.8
2019-05-31T05:54:26.688Z,1013.8
2019-05-31T05:55:28.838Z,1013.8
2019-05-31T05:56:32.729Z,1013.8
2019-05-31T05:57:31.046Z,1013.8
2019-05-31T05:58:32.048Z,1013.8
2019-05-31T05:59:33.412Z,1013.8
2019-05-31T06:00:34.776Z,1013.8
2019-05-31T06:01:36.139Z,1013.8
2019-05-31T06:02:37.509Z,1013.9
2019-05-31T06:03:38.884Z,1013.9
2019-05-31T06:04:40.246Z,1013.9
2019-05-31T06:05:41.633Z,1014.0
2019-05-31T06:06:43.012Z,1014.0
2019-05-31T06:07:44.385Z,1014.0
2019-05-31T06:08:45.758Z,1014.0
2019-05-31T06:09:47.130Z,1014.0
2019-05-31T06:10:48.494Z,1014.0
2019-05-31T06:11:49.861Z,1013.9
2019-05-31T06:12:51.229Z,1013.9
2019-05-31T06:13:52.624Z,1014.0
2019-05-31T06:14:53.961Z,1013.9
2019-05-31T06:15:55.366Z,1014.0
2019-05-31T06:17:03.462Z,1014.0
2019-05-31T06:18:01.389Z,1014.0
2019-05-31T06:18:59.408Z,1014.0
2019-05-31T06:20:00.779Z,1014.0
2019-05-31T06:21:02.187Z,1014.0
2019-05-31T06:22:03.520Z,1014.1
2019-05-31T06:23:04.888Z,1014.0
2019-05-31T06:24:06.266Z,1014.0
2019-05-31T06:25:07.673Z,1014.0
2019-05-31T06:26:09.015Z,1014.0
2019-05-31T06:27:10.367Z,1014.0
2019-05-31T06:28:11.740Z,1014.0
2019-05-31T06:29:13.108Z,1014.0
2019-05-31T06:30:14.480Z,1014.0
2019-05-31T06:31:15.865Z,1014.0
2019-05-31T06:32:17.244Z,1014.0
2019-05-31T06:33:18.614Z,1014.1
2019-05-31T06:34:19.999Z,1014.1
2019-05-31T06:35:21.365Z,1014.1
2019-05-31T06:36:24.619Z,1014.1
2019-05-31T06:37:24.839Z,1014.2
2019-05-31T06:38:27.010Z,1014.3
2019-05-31T06:39:28.899Z,1014.3
2019-05-31T06:40:29.514Z,1014.3
2019-05-31T06:41:32.240Z,1014.3
2019-05-31T06:42:33.993Z,1014.3
2019-05-31T06:43:35.618Z,1014.3
2019-05-31T06:44:35.772Z,1014.3
2019-05-31T06:45:37.168Z,1014.3
2019-05-31T06:46:39.267Z,1014.4
2019-05-31T06:47:40.639Z,1014.4
2019-05-31T06:48:42.020Z,1014.5
2019-05-31T06:49:43.382Z,1014.5
2019-05-31T06:50:44.760Z,1014.5
2019-05-31T06:51:46.126Z,1014.5
2019-05-31T06:52:47.504Z,1014.4
2019-05-31T06:53:49.450Z,1014.4
2019-05-31T06:54:50.230Z,1014.5
2019-05-31T06:55:51.670Z,1014.6
2019-05-31T06:56:54.472Z,1014.5
2019-05-31T06:57:55.857Z,1014.5
2019-05-31T06:58:57.221Z,1014.5
2019-05-31T06:59:58.597Z,1014.7
2019-05-31T07:00:59.973Z,1014.6
2019-05-31T07:02:01.342Z,1014.6
2019-05-31T07:03:02.720Z,1014.5
2019-05-31T07:04:04.895Z,1014.5
2019-05-31T07:05:06.341Z,1014.6
2019-05-31T07:06:07.735Z,1014.6
2019-05-31T07:07:09.117Z,1014.8
2019-05-31T07:08:11.440Z,1015.0
2019-05-31T07:09:12.811Z,1016.3
2019-05-31T07:10:14.980Z,1014.8
2019-05-31T07:11:16.969Z,1014.8
2019-05-31T07:12:17.936Z,1014.8
2019-05-31T07:13:19.018Z,1015.0
2019-05-31T07:14:20.388Z,1015.9
2019-05-31T07:15:21.771Z,1014.7
2019-05-31T07:16:23.136Z,1014.8
2019-05-31T07:17:24.518Z,1015.1
2019-05-31T07:18:35.452Z,1015.3
2019-05-31T07:19:28.018Z,1014.7
2019-05-31T07:20:30.099Z,1014.7
2019-05-31T07:21:31.148Z,1014.8
2019-05-31T07:22:32.964Z,1014.8
2019-05-31T07:23:38.078Z,1014.8
2019-05-31T07:24:35.242Z,1014.7
2019-05-31T07:25:37.341Z,1014.7
2019-05-31T07:26:39.045Z,1014.6
2019-05-31T07:27:39.389Z,1014.6
2019-05-31T07:28:41.606Z,1014.8
2019-05-31T07:29:44.862Z,1014.8
2019-05-31T07:30:45.046Z,1014.7
2019-05-31T07:31:50.516Z,1014.8
2019-05-31T07:32:48.597Z,1014.8
2019-05-31T07:33:49.973Z,1015.0
2019-05-31T07:34:51.343Z,1014.7
2019-05-31T07:35:52.721Z,1014.8
2019-05-31T07:36:54.101Z,1014.8
2019-05-31T07:37:55.489Z,1014.8
2019-05-31T07:38:56.857Z,1015.0
2019-05-31T07:39:58.244Z,1015.2
2019-05-31T07:40:59.611Z,1015.0
2019-05-31T07:42:00.994Z,1015.0
2019-05-31T07:43:02.373Z,1014.9
2019-05-31T07:44:03.744Z,1015.7
2019-05-31T07:45:05.341Z,1015.4
2019-05-31T07:46:06.511Z,1014.9
2019-05-31T07:47:08.511Z,1014.9
2019-05-31T07:48:09.217Z,1015.0
2019-05-31T07:49:10.596Z,1015.9
2019-05-31T07:50:11.980Z,1016.8
2019-05-31T07:51:13.349Z,1015.9
2019-05-31T07:52:23.926Z,1015.4
2019-05-31T07:53:16.076Z,1014.9
2019-05-31T07:54:18.322Z,1014.9
2019-05-31T07:55:18.935Z,1014.9
2019-05-31T07:56:20.303Z,1014.9
2019-05-31T07:57:21.733Z,1014.9
2019-05-31T07:58:24.100Z,1015.0
2019-05-31T07:59:25.357Z,1014.8
2019-05-31T08:00:26.965Z,1014.9
2019-05-31T08:01:27.107Z,1015.6
2019-05-31T08:02:28.648Z,1016.7
2019-05-31T08:03:30.924Z,1016.6
2019-05-31T08:04:31.211Z,1015.7
2019-05-31T08:05:33.432Z,1015.2
2019-05-31T08:06:38.040Z,1014.9
2019-05-31T08:07:35.633Z,1015.1
2019-05-31T08:08:39.225Z,1014.8
2019-05-31T08:09:38.542Z,1014.9
2019-05-31T08:10:39.917Z,1015.5
2019-05-31T08:11:41.300Z,1015.4
2019-05-31T08:12:42.677Z,1015.3
2019-05-31T08:13:44.048Z,1015.1
2019-05-31T08:14:45.453Z,1016.6
2019-05-31T08:15:46.822Z,1015.2
2019-05-31T08:16:58.211Z,1015.7
2019-05-31T08:17:53.415Z,1015.1
2019-05-31T08:18:51.383Z,1015.3
2019-05-31T08:19:52.762Z,1015.1
2019-05-31T08:20:54.182Z,1015.7
2019-05-31T08:21:55.682Z,1015.3
2019-05-31T08:22:56.953Z,1014.8
2019-05-31T08:23:58.340Z,1014.7
2019-05-31T08:24:59.731Z,1014.9
2019-05-31T08:26:01.128Z,1015.9
2019-05-31T08:27:02.514Z,1015.3
2019-05-31T08:28:03.888Z,1015.7
2019-05-31T08:29:05.277Z,1015.3
2019-05-31T08:30:06.653Z,1015.4
2019-05-31T08:31:08.033Z,1014.0
2019-05-31T08:32:09.413Z,1014.7
2019-05-31T08:33:10.791Z,1015.3
2019-05-31T08:34:12.167Z,1015.3
2019-05-31T08:35:15.035Z,1015.3
2019-05-31T08:36:14.889Z,1015.3
2019-05-31T08:37:16.278Z,1015.2
2019-05-31T08:38:17.651Z,1015.2
2019-05-31T08:39:19.032Z,1015.3
2019-05-31T08:40:20.403Z,1015.2
2019-05-31T08:41:21.793Z,1015.2
2019-05-31T08:42:23.182Z,1015.3
2019-05-31T08:43:24.561Z,1015.3
2019-05-31T08:44:26.782Z,1015.2
2019-05-31T08:45:27.286Z,1015.2
2019-05-31T08:46:29.030Z,1015.2
2019-05-31T08:47:31.824Z,1015.2
2019-05-31T08:48:31.472Z,1015.2
2019-05-31T08:49:40.351Z,1015.2
2019-05-31T08:50:35.360Z,1015.2
2019-05-31T08:51:35.583Z,1015.2
2019-05-31T08:52:44.914Z,1015.1
2019-05-31T08:53:38.317Z,1015.2
2019-05-31T08:54:39.704Z,1015.1
2019-05-31T08:55:41.092Z,1015.3
2019-05-31T08:56:42.475Z,1015.2
2019-05-31T08:57:43.871Z,1015.1
2019-05-31T08:58:46.194Z,1015.2
2019-05-31T08:59:47.618Z,1015.1
2019-05-31T09:00:49.004Z,1015.2
2019-05-31T09:01:50.384Z,1015.3
2019-05-31T09:02:51.779Z,1015.3
2019-05-31T09:03:53.173Z,1015.2
2019-05-31T09:04:54.558Z,1015.2
2019-05-31T09:05:56.888Z,1015.2
2019-05-31T09:06:58.272Z,1015.2
2019-05-31T09:07:59.667Z,1015.2
2019-05-31T09:09:01.867Z,1015.2
2019-05-31T09:10:03.252Z,1015.1
2019-05-31T09:11:05.564Z,1014.9
2019-05-31T09:12:06.914Z,1014.8
2019-05-31T09:13:08.297Z,1014.7
2019-05-31T09:14:09.678Z,1014.7
2019-05-31T09:15:11.692Z,1014.6
2019-05-31T09:16:13.085Z,1014.4
2019-05-31T09:17:15.395Z,1014.3
2019-05-31T09:18:16.780Z,1014.4
2019-05-31T09:19:18.205Z,1014.3
2019-05-31T09:20:19.547Z,1014.4
2019-05-31T09:21:20.937Z,1014.4
2019-05-31T09:22:22.334Z,1014.3
2019-05-31T09:23:23.727Z,1014.2
2019-05-31T09:24:25.109Z,1014.3
2019-05-31T09:25:26.483Z,1014.3
2019-05-31T09:26:30.181Z,1014.2
2019-05-31T09:27:44.071Z,1014.3
2019-05-31T09:28:31.546Z,1014.1
2019-05-31T09:29:38.578Z,1014.2
2019-05-31T09:30:34.300Z,1014.1
2019-05-31T09:31:35.464Z,1014.1
2019-05-31T09:32:37.180Z,1014.2
2019-05-31T09:33:38.224Z,1014.2
2019-05-31T09:34:38.941Z,1014.2
2019-05-31T09:35:40.046Z,1014.1
2019-05-31T09:36:41.426Z,1014.1
2019-05-31T09:37:42.847Z,1014.1
2019-05-31T09:38:44.240Z,1014.1
2019-05-31T09:39:45.625Z,1014.0
2019-05-31T09:40:47.011Z,1013.9
2019-05-31T09:41:48.398Z,1014.0
2019-05-31T09:42:54.188Z,1013.9
2019-05-31T09:43:51.134Z,1014.0
2019-05-31T09:44:52.527Z,1013.9
2019-05-31T09:45:53.912Z,1013.9
2019-05-31T09:46:55.302Z,1014.0
2019-05-31T09:47:56.710Z,1013.8
2019-05-31T09:48:58.093Z,1013.8
2019-05-31T09:50:12.313Z,1013.8
2019-05-31T09:51:00.835Z,1013.9
2019-05-31T09:52:02.274Z,1013.8
2019-05-31T09:53:03.840Z,1013.8
2019-05-31T09:54:05.077Z,1013.5
2019-05-31T09:55:06.474Z,1014.0
2019-05-31T09:56:07.864Z,1013.9
2019-05-31T09:57:09.265Z,1013.9
2019-05-31T09:58:10.655Z,1013.8
2019-05-31T09:59:12.909Z,1013.9
2019-05-31T10:00:14.291Z,1013.9
2019-05-31T10:01:15.673Z,1013.9
2019-05-31T10:02:17.064Z,1013.7
2019-05-31T10:03:18.557Z,1013.6
2019-05-31T10:04:19.939Z,1013.7
2019-05-31T10:05:21.398Z,1013.9
2019-05-31T10:06:22.900Z,1013.9
2019-05-31T10:07:24.307Z,1013.8
2019-05-31T10:08:25.703Z,1013.8
2019-05-31T10:09:27.131Z,1013.8
2019-05-31T10:10:28.563Z,1013.6
2019-05-31T10:11:29.991Z,1013.8
2019-05-31T10:12:32.891Z,1013.8
2019-05-31T10:13:33.601Z,1013.8
2019-05-31T10:14:35.646Z,1013.8
2019-05-31T10:15:36.819Z,1013.8
2019-05-31T10:16:36.835Z,1013.8
2019-05-31T10:17:39.684Z,1013.8
2019-05-31T10:18:40.773Z,1013.7
2019-05-31T10:19:42.932Z,1013.6
2019-05-31T10:20:44.975Z,1013.4
2019-05-31T10:21:46.384Z,1013.7
2019-05-31T10:22:47.770Z,1013.8
2019-05-31T10:23:55.770Z,1013.6
2019-05-31T10:24:50.508Z,1013.4
2019-05-31T10:25:51.898Z,1013.7
2019-05-31T10:26:53.298Z,1013.7
2019-05-31T10:27:54.794Z,1012.7
2019-05-31T10:28:56.908Z,1013.8
2019-05-31T10:29:58.303Z,1013.9
2019-05-31T10:31:14.480Z,1013.8
2019-05-31T10:32:01.074Z,1013.8
2019-05-31T10:33:02.457Z,1013.7
2019-05-31T10:34:03.843Z,1013.4
2019-05-31T10:35:05.228Z,1013.6
2019-05-31T10:36:06.658Z,1013.6
2019-05-31T10:37:08.023Z,1013.6
2019-05-31T10:38:09.414Z,1013.6
2019-05-31T10:39:10.790Z,1013.5
2019-05-31T10:40:12.187Z,1013.5
2019-05-31T10:41:13.577Z,1013.5
2019-05-31T10:42:19.852Z,1013.1
2019-05-31T10:43:16.317Z,1013.3
2019-05-31T10:44:17.720Z,1013.4
2019-05-31T10:45:19.116Z,1013.6
2019-05-31T10:46:20.513Z,1013.5
2019-05-31T10:47:21.905Z,1013.3
2019-05-31T10:48:23.296Z,1013.5
2019-05-31T10:49:25.347Z,1013.6
2019-05-31T10:50:26.724Z,1013.5
2019-05-31T10:51:28.115Z,1013.4
2019-05-31T10:52:29.500Z,1013.4
2019-05-31T10:53:30.949Z,1013.3
2019-05-31T10:54:34.284Z,1013.3
2019-05-31T10:55:34.239Z,1013.2
2019-05-31T10:56:36.960Z,1013.3
2019-05-31T10:57:38.277Z,1013.1
2019-05-31T10:58:38.349Z,1013.1
2019-05-31T10:59:41.236Z,1013.4
2019-05-31T11:00:42.763Z,1013.5
2019-05-31T11:01:45.535Z,1013.2
2019-05-31T11:02:44.703Z,1013.3
2019-05-31T11:03:45.867Z,1013.4
2019-05-31T11:04:46.624Z,1013.2
2019-05-31T11:05:48.020Z,1013.2
2019-05-31T11:06:49.400Z,1013.1
2019-05-31T11:07:50.790Z,1013.2
2019-05-31T11:08:52.191Z,1013.2
2019-05-31T11:09:53.580Z,1013.1
2019-05-31T11:10:54.973Z,1013.1
2019-05-31T11:11:56.367Z,1013.3
2019-05-31T11:12:57.757Z,1013.3
2019-05-31T11:13:59.140Z,1013.1
2019-05-31T11:15:00.528Z,1013.0
2019-05-31T11:16:01.926Z,1013.0
2019-05-31T11:17:03.318Z,1013.2
2019-05-31T11:18:04.713Z,1013.0
2019-05-31T11:19:06.085Z,1012.3
2019-05-31T11:20:07.611Z,1012.3
2019-05-31T11:21:08.989Z,1012.2
2019-05-31T11:22:10.375Z,1012.5
2019-05-31T11:23:11.765Z,1012.5
2019-05-31T11:24:15.548Z,1012.7
2019-05-31T11:25:14.512Z,1012.7
2019-05-31T11:26:15.906Z,1012.8
2019-05-31T11:27:17.417Z,1012.7
2019-05-31T11:28:21.713Z,1012.7
2019-05-31T11:29:22.876Z,1013.1
2019-05-31T11:30:24.272Z,1012.9
2019-05-31T11:31:25.664Z,1013.2
2019-05-31T11:32:27.042Z,1013.1
2019-05-31T11:33:39.459Z,1012.6
2019-05-31T11:34:29.774Z,1013.0
2019-05-31T11:35:31.164Z,1013.2
2019-05-31T11:36:32.553Z,1013.1
2019-05-31T11:37:33.940Z,1013.1
2019-05-31T11:38:36.474Z,1012.9
2019-05-31T11:39:36.919Z,1013.1
2019-05-31T11:40:38.400Z,1013.1
2019-05-31T11:41:40.735Z,1013.0
2019-05-31T11:43:00.602Z,1013.1
2019-05-31T11:43:42.697Z,1012.9
2019-05-31T11:44:43.849Z,1012.4
2019-05-31T11:45:46.421Z,1012.8
2019-05-31T11:46:47.076Z,1012.2
2019-05-31T11:47:51.186Z,1012.0
2019-05-31T11:48:48.887Z,1011.9
2019-05-31T11:49:50.339Z,1012.1
2019-05-31T11:50:51.622Z,1012.2
2019-05-31T11:51:53.006Z,1012.3
2019-05-31T11:52:54.392Z,1012.4
2019-05-31T11:53:55.770Z,1012.4
2019-05-31T11:55:20.495Z,1012.6
2019-05-31T11:55:58.496Z,1012.5
2019-05-31T11:56:59.886Z,1012.5
2019-05-31T11:58:01.258Z,1012.4
2019-05-31T11:59:02.632Z,1012.4
2019-05-31T12:00:04.023Z,1012.4
2019-05-31T12:01:05.402Z,1013.1
2019-05-31T12:02:06.774Z,1013.1
2019-05-31T12:03:08.154Z,1013.2
2019-05-31T12:04:09.535Z,1013.2
2019-05-31T12:05:10.916Z,1013.1
2019-05-31T12:06:15.655Z,1013.1
2019-05-31T12:07:13.650Z,1013.0
2019-05-31T12:08:15.042Z,1012.9
2019-05-31T12:09:16.423Z,1013.0
2019-05-31T12:10:17.806Z,1013.0
2019-05-31T12:11:19.261Z,1012.9
2019-05-31T12:12:20.667Z,1012.8
2019-05-31T12:13:22.042Z,1012.7
2019-05-31T12:14:23.431Z,1012.6
2019-05-31T12:15:24.854Z,1012.8
2019-05-31T12:16:26.249Z,1012.8
2019-05-31T12:17:27.631Z,1012.7
2019-05-31T12:18:29.022Z,1012.8
2019-05-31T12:19:30.423Z,1012.8
2019-05-31T12:20:31.806Z,1012.8
2019-05-31T12:21:46.512Z,1012.8
2019-05-31T12:22:34.552Z,1012.6
2019-05-31T12:23:35.948Z,1012.8
2019-05-31T12:24:39.521Z,1012.8
2019-05-31T12:25:38.797Z,1012.8
2019-05-31T12:26:41.379Z,1012.6
2019-05-31T12:27:42.538Z,1012.5
2019-05-31T12:28:42.895Z,1012.7
2019-05-31T12:29:44.108Z,1011.9
2019-05-31T12:30:45.729Z,1012.9
2019-05-31T12:31:48.128Z,1012.0
2019-05-31T12:32:49.345Z,1012.1
2019-05-31T12:33:49.540Z,1012.2
2019-05-31T12:34:50.932Z,1012.3
2019-05-31T12:35:52.461Z,1012.3
2019-05-31T12:36:53.670Z,1012.5
2019-05-31T12:37:55.051Z,1012.6
2019-05-31T12:38:56.484Z,1012.5
2019-05-31T12:39:57.866Z,1012.5
2019-05-31T12:40:59.658Z,1012.5
2019-05-31T12:42:00.607Z,1012.6
2019-05-31T12:43:06.347Z,1012.6
2019-05-31T12:44:03.347Z,1012.7
2019-05-31T12:45:04.733Z,1012.7
2019-05-31T12:46:07.408Z,1012.9